sensor_id;sensor_type;location;lat;lon;timestamp;P1;durP1;ratioP1;P2;durP2;ratioP2
71162;SDS011;58858;50.948;6.566;2023-07-22T00:03:30;13.95;;;4.45;;
71162;SDS011;58858;50.948;6.566;2023-07-22T00:13:32;7.85;;;4.18;;
71162;SDS011;58858;50.948;6.566;2023-07-22T00:23:33;11.65;;;5.10;;
71162;SDS011;58858;50.948;6.566;2023-07-22T00:33:34;8.32;;;4.35;;
71162;SDS011;58858;50.948;6.566;2023-07-22T00:43:35;12.40;;;4.68;;
71162;SDS011;58858;50.948;6.566;2023-07-22T00:53:36;9.70;;;4.32;;
71162;SDS011;58858;50.948;6.566;2023-07-22T01:03:37;12.65;;;4.93;;
71162;SDS011;58858;50.948;6.566;2023-07-22T01:13:38;9.55;;;5.10;;
71162;SDS011;58858;50.948;6.566;2023-07-22T01:23:39;9.32;;;4.50;;
71162;SDS011;58858;50.948;6.566;2023-07-22T01:33:40;7.47;;;4.13;;
71162;SDS011;58858;50.948;6.566;2023-07-22T01:43:42;13.30;;;4.90;;
71162;SDS011;58858;50.948;6.566;2023-07-22T01:53:43;9.93;;;4.28;;
71162;SDS011;58858;50.948;6.566;2023-07-22T02:03:44;11.43;;;4.80;;
71162;SDS011;58858;50.948;6.566;2023-07-22T02:13:47;10.05;;;4.45;;
71162;SDS011;58858;50.948;6.566;2023-07-22T02:23:48;8.15;;;4.07;;
71162;SDS011;58858;50.948;6.566;2023-07-22T02:33:49;16.45;;;5.05;;
71162;SDS011;58858;50.948;6.566;2023-07-22T02:43:50;16.95;;;7.00;;
71162;SDS011;58858;50.948;6.566;2023-07-22T02:53:51;12.70;;;5.40;;
71162;SDS011;58858;50.948;6.566;2023-07-22T03:03:53;12.48;;;7.30;;
71162;SDS011;58858;50.948;6.566;2023-07-22T03:13:54;8.50;;;5.00;;
71162;SDS011;58858;50.948;6.566;2023-07-22T03:23:55;9.52;;;4.78;;
71162;SDS011;58858;50.948;6.566;2023-07-22T03:33:56;13.48;;;5.43;;
71162;SDS011;58858;50.948;6.566;2023-07-22T03:43:58;11.60;;;4.70;;
71162;SDS011;58858;50.948;6.566;2023-07-22T03:53:59;9.82;;;5.05;;
71162;SDS011;58858;50.948;6.566;2023-07-22T04:04:01;8.13;;;5.30;;
71162;SDS011;58858;50.948;6.566;2023-07-22T04:14:02;11.60;;;5.35;;
71162;SDS011;58858;50.948;6.566;2023-07-22T04:24:03;8.35;;;5.32;;
71162;SDS011;58858;50.948;6.566;2023-07-22T04:34:05;10.88;;;5.30;;
71162;SDS011;58858;50.948;6.566;2023-07-22T04:44:06;10.05;;;5.40;;
71162;SDS011;58858;50.948;6.566;2023-07-22T04:54:08;13.60;;;5.00;;
71162;SDS011;58858;50.948;6.566;2023-07-22T05:04:09;15.88;;;5.35;;
71162;SDS011;58858;50.948;6.566;2023-07-22T05:14:10;8.10;;;5.07;;
71162;SDS011;58858;50.948;6.566;2023-07-22T05:24:11;6.47;;;3.95;;
71162;SDS011;58858;50.948;6.566;2023-07-22T05:34:13;8.10;;;4.53;;
71162;SDS011;58858;50.948;6.566;2023-07-22T05:44:14;10.70;;;6.60;;
71162;SDS011;58858;50.948;6.566;2023-07-22T05:54:15;8.15;;;3.90;;
71162;SDS011;58858;50.948;6.566;2023-07-22T06:04:16;9.43;;;4.13;;
71162;SDS011;58858;50.948;6.566;2023-07-22T06:14:17;7.22;;;4.80;;
71162;SDS011;58858;50.948;6.566;2023-07-22T06:24:18;16.40;;;8.88;;
71162;SDS011;58858;50.948;6.566;2023-07-22T06:34:19;7.65;;;4.65;;
71162;SDS011;58858;50.948;6.566;2023-07-22T06:44:20;5.43;;;4.05;;
71162;SDS011;58858;50.948;6.566;2023-07-22T06:54:21;7.25;;;4.72;;
71162;SDS011;58858;50.948;6.566;2023-07-22T07:04:23;7.88;;;4.57;;
71162;SDS011;58858;50.948;6.566;2023-07-22T07:14:24;9.68;;;5.00;;
71162;SDS011;58858;50.948;6.566;2023-07-22T07:24:28;9.82;;;4.57;;
71162;SDS011;58858;50.948;6.566;2023-07-22T07:34:29;9.30;;;4.57;;
71162;SDS011;58858;50.948;6.566;2023-07-22T07:44:30;14.65;;;5.55;;
71162;SDS011;58858;50.948;6.566;2023-07-22T07:54:31;10.02;;;4.60;;
71162;SDS011;58858;50.948;6.566;2023-07-22T08:04:32;9.45;;;5.10;;
71162;SDS011;58858;50.948;6.566;2023-07-22T08:14:34;8.38;;;6.28;;
71162;SDS011;58858;50.948;6.566;2023-07-22T08:24:35;7.57;;;5.32;;
71162;SDS011;58858;50.948;6.566;2023-07-22T08:34:36;14.77;;;5.40;;
71162;SDS011;58858;50.948;6.566;2023-07-22T08:44:38;6.10;;;4.28;;
71162;SDS011;58858;50.948;6.566;2023-07-22T08:54:42;6.57;;;3.75;;
71162;SDS011;58858;50.948;6.566;2023-07-22T09:04:44;4.53;;;3.70;;
71162;SDS011;58858;50.948;6.566;2023-07-22T09:14:46;5.32;;;3.17;;
71162;SDS011;58858;50.948;6.566;2023-07-22T09:24:47;4.45;;;3.30;;
71162;SDS011;58858;50.948;6.566;2023-07-22T09:34:55;3.78;;;3.22;;
71162;SDS011;58858;50.948;6.566;2023-07-22T09:44:56;3.80;;;3.08;;
71162;SDS011;58858;50.948;6.566;2023-07-22T09:54:58;3.67;;;2.20;;
71162;SDS011;58858;50.948;6.566;2023-07-22T10:05:24;7.05;;;2.95;;
71162;SDS011;58858;50.948;6.566;2023-07-22T10:15:28;4.47;;;2.80;;
71162;SDS011;58858;50.948;6.566;2023-07-22T10:25:30;5.57;;;2.80;;
71162;SDS011;58858;50.948;6.566;2023-07-22T10:45:33;7.40;;;2.17;;
71162;SDS011;58858;50.948;6.566;2023-07-22T10:56:01;7.15;;;2.60;;
71162;SDS011;58858;50.948;6.566;2023-07-22T11:06:13;4.18;;;2.30;;
71162;SDS011;58858;50.948;6.566;2023-07-22T11:16:15;5.30;;;1.98;;
71162;SDS011;58858;50.948;6.566;2023-07-22T11:26:19;2.60;;;2.38;;
71162;SDS011;58858;50.948;6.566;2023-07-22T11:36:20;2.72;;;2.50;;
71162;SDS011;58858;50.948;6.566;2023-07-22T11:46:21;3.40;;;2.88;;
71162;SDS011;58858;50.948;6.566;2023-07-22T11:56:23;3.65;;;2.63;;
71162;SDS011;58858;50.948;6.566;2023-07-22T12:06:26;4.00;;;2.37;;
71162;SDS011;58858;50.948;6.566;2023-07-22T12:16:28;2.92;;;2.47;;
71162;SDS011;58858;50.948;6.566;2023-07-22T12:26:29;6.22;;;2.30;;
71162;SDS011;58858;50.948;6.566;2023-07-22T12:36:30;5.00;;;2.30;;
71162;SDS011;58858;50.948;6.566;2023-07-22T12:46:31;4.25;;;2.00;;
71162;SDS011;58858;50.948;6.566;2023-07-22T12:56:32;3.53;;;2.63;;
71162;SDS011;58858;50.948;6.566;2023-07-22T13:06:33;4.95;;;3.00;;
71162;SDS011;58858;50.948;6.566;2023-07-22T13:16:34;2.88;;;2.47;;
71162;SDS011;58858;50.948;6.566;2023-07-22T13:26:36;8.90;;;2.85;;
71162;SDS011;58858;50.948;6.566;2023-07-22T13:36:37;3.42;;;2.55;;
71162;SDS011;58858;50.948;6.566;2023-07-22T13:46:38;6.22;;;2.70;;
71162;SDS011;58858;50.948;6.566;2023-07-22T13:56:39;5.05;;;3.20;;
71162;SDS011;58858;50.948;6.566;2023-07-22T14:06:40;4.10;;;2.80;;
71162;SDS011;58858;50.948;6.566;2023-07-22T14:16:41;4.30;;;2.75;;
71162;SDS011;58858;50.948;6.566;2023-07-22T14:26:42;3.55;;;3.17;;
71162;SDS011;58858;50.948;6.566;2023-07-22T14:36:43;6.30;;;2.70;;
71162;SDS011;58858;50.948;6.566;2023-07-22T14:46:44;3.47;;;2.50;;
71162;SDS011;58858;50.948;6.566;2023-07-22T14:56:45;7.35;;;2.90;;
71162;SDS011;58858;50.948;6.566;2023-07-22T15:06:47;3.13;;;2.33;;
71162;SDS011;58858;50.948;6.566;2023-07-22T15:16:48;3.42;;;2.60;;
71162;SDS011;58858;50.948;6.566;2023-07-22T15:26:49;3.83;;;2.03;;
71162;SDS011;58858;50.948;6.566;2023-07-22T15:36:50;4.20;;;2.65;;
71162;SDS011;58858;50.948;6.566;2023-07-22T15:46:51;4.63;;;2.72;;
71162;SDS011;58858;50.948;6.566;2023-07-22T15:56:52;6.60;;;3.33;;
71162;SDS011;58858;50.948;6.566;2023-07-22T16:06:53;4.32;;;2.97;;
71162;SDS011;58858;50.948;6.566;2023-07-22T16:16:54;5.60;;;3.22;;
71162;SDS011;58858;50.948;6.566;2023-07-22T16:26:55;3.28;;;2.13;;
71162;SDS011;58858;50.948;6.566;2023-07-22T16:36:57;15.57;;;8.63;;
71162;SDS011;58858;50.948;6.566;2023-07-22T16:47:09;7.10;;;3.47;;
71162;SDS011;58858;50.948;6.566;2023-07-22T17:08:05;4.30;;;2.57;;
71162;SDS011;58858;50.948;6.566;2023-07-22T17:18:06;4.07;;;2.25;;
71162;SDS011;58858;50.948;6.566;2023-07-22T17:29:00;4.77;;;2.97;;
71162;SDS011;58858;50.948;6.566;2023-07-22T17:39:01;5.05;;;2.63;;
71162;SDS011;58858;50.948;6.566;2023-07-22T17:49:02;4.53;;;2.55;;
71162;SDS011;58858;50.948;6.566;2023-07-22T17:59:03;4.78;;;2.40;;
71162;SDS011;58858;50.948;6.566;2023-07-22T18:09:07;7.40;;;2.17;;
71162;SDS011;58858;50.948;6.566;2023-07-22T18:19:08;3.70;;;2.33;;
71162;SDS011;58858;50.948;6.566;2023-07-22T18:29:10;6.03;;;2.33;;
71162;SDS011;58858;50.948;6.566;2023-07-22T18:39:11;4.20;;;2.42;;
71162;SDS011;58858;50.948;6.566;2023-07-22T18:49:12;5.75;;;2.10;;
71162;SDS011;58858;50.948;6.566;2023-07-22T18:59:13;6.68;;;1.98;;
71162;SDS011;58858;50.948;6.566;2023-07-22T19:09:14;7.70;;;2.22;;
71162;SDS011;58858;50.948;6.566;2023-07-22T19:19:15;3.60;;;2.10;;
71162;SDS011;58858;50.948;6.566;2023-07-22T19:29:16;10.75;;;3.10;;
71162;SDS011;58858;50.948;6.566;2023-07-22T19:39:18;42.80;;;6.60;;
71162;SDS011;58858;50.948;6.566;2023-07-22T19:49:19;3.55;;;1.95;;
71162;SDS011;58858;50.948;6.566;2023-07-22T19:59:20;6.53;;;2.42;;
71162;SDS011;58858;50.948;6.566;2023-07-22T20:09:21;2.78;;;1.98;;
71162;SDS011;58858;50.948;6.566;2023-07-22T20:19:22;2.90;;;2.00;;
71162;SDS011;58858;50.948;6.566;2023-07-22T20:30:04;4.72;;;1.80;;
71162;SDS011;58858;50.948;6.566;2023-07-22T20:40:06;3.53;;;1.90;;
71162;SDS011;58858;50.948;6.566;2023-07-22T20:50:09;3.63;;;2.17;;
71162;SDS011;58858;50.948;6.566;2023-07-22T21:00:12;3.50;;;1.75;;
71162;SDS011;58858;50.948;6.566;2023-07-22T21:10:13;3.85;;;2.08;;
71162;SDS011;58858;50.948;6.566;2023-07-22T21:20:14;4.00;;;2.25;;
71162;SDS011;58858;50.948;6.566;2023-07-22T21:30:16;4.80;;;2.80;;
71162;SDS011;58858;50.948;6.566;2023-07-22T21:40:22;8.18;;;2.45;;
71162;SDS011;58858;50.948;6.566;2023-07-22T21:50:23;8.77;;;2.80;;
71162;SDS011;58858;50.948;6.566;2023-07-22T22:00:25;9.10;;;3.10;;
71162;SDS011;58858;50.948;6.566;2023-07-22T22:10:46;7.30;;;2.88;;
71162;SDS011;58858;50.948;6.566;2023-07-22T22:20:47;10.52;;;2.50;;
71162;SDS011;58858;50.948;6.566;2023-07-22T22:30:49;8.27;;;2.38;;
71162;SDS011;58858;50.948;6.566;2023-07-22T22:40:50;6.43;;;2.45;;
71162;SDS011;58858;50.948;6.566;2023-07-22T22:50:51;6.80;;;2.42;;
71162;SDS011;58858;50.948;6.566;2023-07-22T23:00:52;6.85;;;2.60;;
71162;SDS011;58858;50.948;6.566;2023-07-22T23:10:53;8.05;;;3.40;;
71162;SDS011;58858;50.948;6.566;2023-07-22T23:20:54;8.40;;;3.03;;
71162;SDS011;58858;50.948;6.566;2023-07-22T23:30:57;10.43;;;4.47;;
71162;SDS011;58858;50.948;6.566;2023-07-22T23:40:58;5.40;;;3.92;;
71162;SDS011;58858;50.948;6.566;2023-07-22T23:51:03;5.23;;;3.37;;
